Thursday, November 23, 2017, 7:16 PM EST
Back to Local

KRME, Griffiss Airfield

Location: Rome, NY, United States Lat: 43.233
Local Time: 7:16 PM EST ( 0:16 GMT) Lon: -75.4
Time Zone: US/Eastern Elev: 505 ft

Show me the last for .
Show Decoded

2017-11-23 18:53 METAR KRME 232353Z 00000KT 10SM OVC028 01/M03 A2999 RMK AO2 SLP162 T00061033
                 10011 20000 55003 =
2017-11-23 17:53 METAR KRME 232253Z 00000KT 10SM BKN037 OVC095 01/M04 A2999 RMK AO2 SLP161
                 T00061039 =
2017-11-23 16:53 METAR KRME 232153Z 00000KT 10SM BKN039 OVC100 01/M05 A2999 RMK AO2 SLP161
                 T00111050 =
2017-11-23 15:53 METAR KRME 232053Z 24003KT 10SM OVC034 01/M05 A3000 RMK AO2 SLP164 T00111050
                 56017 =
2017-11-23 14:53 METAR KRME 231953Z 26005KT 10SM OVC038 01/M05 A3001 RMK AO2 SLP166 T00111050 =
2017-11-23 13:53 METAR KRME 231853Z 25005KT 10SM BKN043 OVC090 01/M06 A3003 RMK AO2 SLP173
                 T00061056 =
2017-11-23 12:53 METAR KRME 231753Z 00000KT 10SM FEW025 BKN037 OVC095 01/M04 A3006 RMK AO2 SLP181
                 T00061044 10006 21044 58029 =
2017-11-23 11:53 METAR KRME 231653Z 28007KT 10SM OVC031 M01/M05 A3009 RMK AO2 SLP192 T10061050 =
2017-11-23 10:53 METAR KRME 231553Z 00000KT 10SM OVC035 M01/M04 A3013 RMK AO2 SLP206 T10111044 =
2017-11-23 09:53 METAR KRME 231453Z 25005KT 10SM FEW038 FEW120 M02/M06 A3014 RMK AO2 SLP212
                 T10171056 53003 =
2017-11-23 08:53 METAR KRME 231353Z 25003KT 10SM CLR M03/M06 A3014 RMK AO2 SLP211 T10281056 =
2017-11-23 07:53 METAR KRME 231253Z 00000KT 10SM CLR M03/M06 A3013 RMK AO2 SLP208 T10331061 =
2017-11-23 06:53 METAR KRME 231153Z 27003KT 10SM CLR M03/M07 A3013 RMK AO2 SLP209 70004 T10331067
                 11022 21039 57004 =
2017-11-23 06:29 METAR KRME 231129Z 29005KT 10SM BKN030 M03/M07 A3014 RMK AO2 T10331067 =
2017-11-23 06:06 METAR KRME 231106Z AUTO 29005KT 10SM OVC029 M03/M07 A3014 RMK AO2 T10281067 =
2017-11-23 05:53 METAR KRME 231053Z 29006KT 10SM OVC031 M03/M06 A3014 RMK AO2 SLP211 T10331061 =
2017-11-23 04:53 METAR KRME 230953Z 29009KT 10SM OVC031 M03/M07 A3014 RMK AO2 SLP211 T10281067 =
2017-11-23 04:16 METAR KRME 230916Z 27009KT 10SM OVC030 M03/M07 A3015 RMK AO2 T10281067 =
2017-11-23 03:53 METAR KRME 230853Z 28006KT 10SM OVC029 M03/M07 A3015 RMK AO2 SLP212 T10281067
                 53005 =
2017-11-23 02:53 METAR KRME 230753Z 27007KT 10SM OVC030 M03/M07 A3014 RMK AO2 SLP210 T10281067 =
2017-11-23 01:53 METAR KRME 230653Z 27007KT 10SM OVC031 M02/M06 A3013 RMK AO2 SLP208 T10221061 =
2017-11-23 00:53 METAR KRME 230553Z 28009KT 10SM OVC031 M02/M06 A3013 RMK AO2 SLP207 60000
                 T10221061 10000 21022 58002 =
2017-11-23 00:51 METAR KRME 230551Z 28010KT 10SM OVC031 M02/M06 A3013 RMK AO2 =
2017-11-22 23:53 METAR KRME 230453Z 28011G19KT 10SM OVC026 M02/M06 A3014 RMK AO2 SLP212 T10171056
                 400891017 =
2017-11-22 22:53 METAR KRME 230353Z 28013G20KT 10SM OVC026 M02/M05 A3014 RMK AO2 SLP209 T10171050
                 =
2017-11-22 21:53 METAR KRME 230253Z 28016G22KT 10SM OVC026 M01/M04 A3014 RMK AO2 UPE22 SLP211
                 P0000 60000 T10111044 53004 =
2017-11-22 20:53 METAR KRME 230153Z 28014KT 10SM UP OVC023 M01/M03 A3014 RMK AO2 UPB07SNE07
                 SLP209 P0000 T10061033 =
2017-11-22 19:53 METAR KRME 230053Z 28012KT 5SM -SN BR FEW009 BKN017 OVC029 M01/M02 A3013 RMK AO2
                 SNB39 SLP208 P0000 T10061017 =

Support USWX by starting your Amazon purchase here.